Time;durP1;ratioP1;P1;durP2;ratioP2;P2;SDS_P1;SDS_P2;PMS_P1;PMS_P2;Temp;Humidity;BMP_temperature;BMP_pressure;BME280_temperature;BME280_humidity;BME280_pressure;Samples;Min_cycle;Max_cycle;Signal;HPM_P1;HPM_P2
2022/01/17 00:02:25;;;;;;;12.88;2.35;;;5.90;99.90;;;;;;5073488;28;20071;-72
2022/01/17 00:04:51;;;;;;;13.27;2.20;;;6.00;99.90;;;;;;5062572;28;20086;-71
2022/01/17 00:07:17;;;;;;;13.60;2.35;;;5.90;99.90;;;;;;5066217;28;20067;-72
2022/01/17 00:09:43;;;;;;;16.08;2.17;;;5.90;99.90;;;;;;5046245;28;20093;-71
2022/01/17 00:12:09;;;;;;;13.07;2.65;;;5.90;99.90;;;;;;5078949;28;20056;-72
2022/01/17 00:14:39;;;;;;;11.52;2.40;;;5.90;99.90;;;;;;5065374;28;20037;-71
2022/01/17 00:19:42;;;;;;;10.50;2.10;;;6.00;99.90;;;;;;5070169;28;20044;-71
2022/01/17 00:22:09;;;;;;;12.18;2.58;;;6.00;99.90;;;;;;5070022;28;20078;-71
2022/01/17 00:24:35;;;;;;;18.75;2.42;;;6.00;99.90;;;;;;5066046;28;20041;-70
2022/01/17 00:27:01;;;;;;;10.05;1.85;;;5.90;99.90;;;;;;5049269;28;20036;-71
2022/01/17 00:29:27;;;;;;;14.55;2.20;;;5.90;99.90;;;;;;5052590;28;20048;-71
2022/01/17 00:31:53;;;;;;;;;;;5.90;99.90;;;;;;5071760;28;20087;-71
2022/01/17 00:34:19;;;;;;;15.88;2.53;;;5.90;99.90;;;;;;5063968;28;19932;-71
2022/01/17 00:36:45;;;;;;;13.23;2.00;;;5.90;99.90;;;;;;5050198;28;20514;-71
2022/01/17 00:39:11;;;;;;;14.95;2.70;;;5.80;99.90;;;;;;5071220;28;20033;-72
2022/01/17 00:41:36;;;;;;;16.48;2.42;;;5.80;99.90;;;;;;5071261;28;20040;-72
2022/01/17 00:44:03;;;;;;;15.60;2.00;;;5.80;99.90;;;;;;5054198;28;20040;-71
2022/01/17 00:46:30;;;;;;;14.30;2.20;;;5.80;99.90;;;;;;5053376;28;20071;-72
2022/01/17 00:48:55;;;;;;;18.52;2.42;;;5.80;99.90;;;;;;5042964;28;20045;-72
2022/01/17 00:51:24;;;;;;;11.40;2.28;;;5.80;99.90;;;;;;5046756;28;20044;-72
2022/01/17 00:53:49;;;;;;;14.63;2.55;;;5.70;99.90;;;;;;5063703;28;20040;-72
2022/01/17 00:56:18;;;;;;;20.00;3.67;;;5.70;99.90;;;;;;5053283;28;20059;-72
2022/01/17 00:58:43;;;;;;;16.23;2.83;;;5.70;99.90;;;;;;5070517;28;20040;-72
2022/01/17 01:01:09;;;;;;;14.90;2.90;;;5.60;99.90;;;;;;5069704;28;20040;-72
2022/01/17 01:03:35;;;;;;;16.30;2.20;;;5.60;99.90;;;;;;5068279;28;20287;-71
2022/01/17 01:06:01;;;;;;;17.33;2.88;;;5.50;99.90;;;;;;5067579;28;20032;-71
2022/01/17 01:08:26;;;;;;;15.93;2.40;;;5.60;99.90;;;;;;5051285;28;20550;-71
2022/01/17 01:10:52;;;;;;;12.43;2.20;;;5.50;99.90;;;;;;5062067;28;20043;-71
2022/01/17 01:13:22;;;;;;;14.38;2.72;;;5.50;99.90;;;;;;5092303;28;20456;-72
2022/01/17 01:16:08;;;;;;;13.15;2.08;;;5.60;99.90;;;;;;5053556;28;20060;-72
2022/01/17 01:29:26;;;;;;;14.65;2.38;;;5.60;99.90;;;;;;5066480;28;20119;-72
2022/01/17 01:31:57;;;;;;;14.93;2.40;;;5.70;99.90;;;;;;5033548;28;20045;-72
2022/01/17 01:34:28;;;;;;;14.38;2.70;;;5.60;99.90;;;;;;5045078;28;20547;-72
2022/01/17 01:36:53;;;;;;;15.20;2.40;;;5.60;99.90;;;;;;5066138;28;20047;-73
2022/01/17 01:39:24;;;;;;;17.80;2.40;;;5.60;99.90;;;;;;5070152;28;20033;-72
2022/01/17 01:41:51;;;;;;;19.30;2.38;;;5.50;99.90;;;;;;5050836;28;20283;-71
2022/01/17 01:44:19;;;;;;;21.33;3.15;;;5.60;99.90;;;;;;5070881;28;20125;-71
2022/01/17 01:46:46;;;;;;;15.05;2.65;;;5.60;99.90;;;;;;5071083;28;20060;-71
2022/01/17 01:49:14;;;;;;;16.58;2.45;;;5.60;99.90;;;;;;5067386;28;20472;-72
2022/01/17 01:51:40;;;;;;;15.68;2.50;;;5.50;99.90;;;;;;5070045;28;20072;-71
2022/01/17 01:54:07;;;;;;;20.40;2.58;;;5.50;99.90;;;;;;5065695;28;20047;-72
2022/01/17 01:56:43;;;;;;;15.82;2.20;;;5.60;99.90;;;;;;5070458;28;20067;-72
2022/01/17 01:59:09;;;;;;;16.65;2.50;;;5.60;99.90;;;;;;5065570;28;20033;-72
2022/01/17 02:01:35;;;;;;;;;;;5.50;99.90;;;;;;5048174;28;20546;-72
2022/01/17 02:04:01;;;;;;;16.15;2.42;;;5.50;99.90;;;;;;5061274;28;19947;-72
2022/01/17 02:06:26;;;;;;;14.25;2.88;;;5.50;99.90;;;;;;5065991;28;20044;-72
2022/01/17 02:08:55;;;;;;;13.55;2.58;;;5.50;99.90;;;;;;5066611;28;20055;-72
2022/01/17 02:11:20;;;;;;;18.20;2.75;;;5.40;99.90;;;;;;5066793;28;20420;-72
2022/01/17 02:13:46;;;;;;;14.80;2.40;;;5.40;99.90;;;;;;5049496;28;20047;-72
2022/01/17 02:16:15;;;;;;;16.33;2.33;;;5.40;99.90;;;;;;5040105;28;20040;-74
2022/01/17 02:18:45;;;;;;;11.48;2.00;;;5.40;99.90;;;;;;5041871;28;20391;-72
2022/01/17 02:23:39;;;;;;;19.75;3.00;;;5.30;99.90;;;;;;5068578;28;20044;-72
2022/01/17 02:26:05;;;;;;;17.52;2.30;;;5.30;99.90;;;;;;5066508;28;20135;-72
2022/01/17 02:28:33;;;;;;;13.38;2.38;;;5.30;99.90;;;;;;5063756;28;20116;-72
2022/01/17 02:31:00;;;;;;;20.23;2.50;;;5.30;99.90;;;;;;5032498;28;20036;-72
2022/01/17 02:33:27;;;;;;;15.50;2.78;;;5.30;99.90;;;;;;5051602;28;20037;-72
2022/01/17 02:35:52;;;;;;;;;;;5.30;99.90;;;;;;5053237;28;20068;-72
2022/01/17 02:38:18;;;;;;;15.95;2.85;;;5.40;99.90;;;;;;5066199;28;19958;-72
2022/01/17 02:40:44;;;;;;;19.80;2.40;;;5.40;99.90;;;;;;5069885;28;20182;-73
2022/01/17 02:43:10;;;;;;;15.15;2.78;;;5.50;99.90;;;;;;5067728;28;20476;-77
2022/01/17 02:46:24;;;;;;;16.65;2.30;;;5.50;99.90;;;;;;5066001;28;20056;-78
2022/01/17 02:48:24;;;;;;;12.20;2.10;;;5.50;99.90;;;;;;5071892;28;20054;-77
2022/01/17 02:50:50;;;;;;;17.85;2.10;;;5.60;99.90;;;;;;5072316;28;20131;-78
2022/01/17 02:53:16;;;;;;;14.02;2.63;;;5.60;99.90;;;;;;5068551;28;20044;-78
2022/01/17 02:55:49;;;;;;;15.63;2.22;;;5.60;99.90;;;;;;5053152;28;20064;-78
2022/01/17 02:58:16;;;;;;;17.60;2.53;;;5.60;99.90;;;;;;5071605;28;20097;-78
2022/01/17 03:00:42;;;;;;;16.75;3.00;;;5.60;99.90;;;;;;5047324;28;20045;-79
2022/01/17 03:03:17;;;;;;;17.15;2.28;;;5.70;99.90;;;;;;5069445;28;20047;-78
2022/01/17 03:05:43;;;;;;;17.20;2.55;;;5.70;99.90;;;;;;5071939;28;20071;-79
2022/01/17 03:08:09;;;;;;;14.88;2.38;;;5.80;99.90;;;;;;5071619;28;20071;-80
2022/01/17 03:10:43;;;;;;;14.73;2.75;;;5.80;99.90;;;;;;5070573;28;20049;-78
2022/01/17 03:13:14;;;;;;;17.83;2.50;;;5.80;99.90;;;;;;5055044;28;20040;-81
2022/01/17 03:15:41;;;;;;;12.10;2.53;;;5.80;99.90;;;;;;5096849;28;20476;-78
2022/01/17 03:18:07;;;;;;;16.73;2.40;;;5.80;99.90;;;;;;5072186;28;20422;-78
2022/01/17 03:20:39;;;;;;;17.02;2.38;;;5.80;99.90;;;;;;5067744;28;20063;-77
2022/01/17 03:23:08;;;;;;;18.50;2.22;;;5.80;99.90;;;;;;5075270;28;20080;-76
2022/01/17 03:25:34;;;;;;;12.25;2.40;;;5.80;99.90;;;;;;5071244;28;20052;-77
2022/01/17 03:28:00;;;;;;;18.63;3.47;;;5.80;99.90;;;;;;5071811;28;20045;-76
2022/01/17 03:30:30;;;;;;;17.70;2.65;;;5.80;99.90;;;;;;5071110;28;20525;-77
2022/01/17 03:32:56;;;;;;;15.70;2.75;;;5.90;99.90;;;;;;5064927;28;20460;-80
2022/01/17 03:35:22;;;;;;;15.07;2.63;;;5.90;99.90;;;;;;5071412;28;20047;-78
2022/01/17 03:37:48;;;;;;;16.13;2.45;;;5.90;99.90;;;;;;5054292;28;20094;-77
2022/01/17 03:40:14;;;;;;;16.05;2.90;;;5.90;99.90;;;;;;5040621;28;20029;-77
2022/01/17 03:42:40;;;;;;;16.98;2.28;;;6.00;99.90;;;;;;5095206;28;20068;-77
2022/01/17 03:45:07;;;;;;;13.90;2.55;;;6.00;99.90;;;;;;5050223;28;20044;-77
2022/01/17 03:47:35;;;;;;;13.10;2.38;;;6.00;99.90;;;;;;5052706;28;20046;-80
2022/01/17 03:50:03;;;;;;;18.10;2.50;;;6.00;99.90;;;;;;5052902;28;20106;-78
2022/01/17 03:52:28;;;;;;;16.83;2.55;;;6.00;99.90;;;;;;5067485;28;20047;-79
2022/01/17 03:54:54;;;;;;;17.77;2.47;;;6.00;99.90;;;;;;5051146;28;20033;-81
2022/01/17 03:57:19;;;;;;;13.52;2.55;;;6.00;99.90;;;;;;5095544;28;20061;-78
2022/01/17 03:59:45;;;;;;;15.32;2.38;;;6.00;99.90;;;;;;5069499;28;20037;-77
2022/01/17 04:02:11;;;;;;;11.40;2.20;;;6.00;99.90;;;;;;5072102;28;20569;-78
2022/01/17 04:04:36;;;;;;;14.63;1.92;;;6.00;99.90;;;;;;5038178;28;20169;-78
2022/01/17 04:07:02;;;;;;;9.07;1.85;;;5.90;99.90;;;;;;5054917;28;20110;-78
2022/01/17 04:09:28;;;;;;;11.82;2.22;;;5.90;99.90;;;;;;5071530;28;20561;-77
2022/01/17 04:11:54;;;;;;;16.35;2.08;;;6.00;99.90;;;;;;5053439;28;20036;-77
2022/01/17 04:14:19;;;;;;;15.43;2.42;;;5.90;99.90;;;;;;5044136;28;20491;-79
2022/01/17 04:16:45;;;;;;;11.35;1.80;;;5.90;99.90;;;;;;5065933;28;20518;-79
2022/01/17 04:19:11;;;;;;;14.65;2.15;;;6.00;99.90;;;;;;5038375;28;20064;-79
2022/01/17 04:21:38;;;;;;;;;;;6.10;99.90;;;;;;5056464;28;20393;-79
2022/01/17 04:24:03;;;;;;;13.57;2.13;;;6.10;99.90;;;;;;5075405;28;19916;-80
2022/01/17 04:26:29;;;;;;;13.73;2.65;;;6.10;99.90;;;;;;5072355;28;20143;-79
2022/01/17 04:28:55;;;;;;;15.82;2.55;;;6.20;99.90;;;;;;5057917;28;20055;-78
2022/01/17 04:31:21;;;;;;;12.85;2.33;;;6.20;99.90;;;;;;5075487;28;20125;-77
2022/01/17 04:33:47;;;;;;;14.40;2.15;;;6.20;99.90;;;;;;5040105;28;20129;-78
2022/01/17 04:36:13;;;;;;;17.90;2.28;;;6.20;99.90;;;;;;5071261;28;20083;-80
2022/01/17 04:38:38;;;;;;;10.77;2.08;;;6.30;99.90;;;;;;5071490;28;20029;-79
2022/01/17 04:41:13;;;;;;;13.23;2.95;;;6.30;99.90;;;;;;5076095;28;20040;-78
2022/01/17 04:46:10;;;;;;;19.02;3.15;;;6.40;99.90;;;;;;5057609;28;20087;-77
2022/01/17 04:48:37;;;;;;;26.05;3.08;;;6.30;99.90;;;;;;5070395;28;20040;-77
2022/01/17 04:51:04;;;;;;;11.13;2.45;;;6.40;99.90;;;;;;5070216;28;20033;-76
2022/01/17 04:53:31;;;;;;;18.23;2.60;;;6.40;99.90;;;;;;5055444;28;20044;-79
2022/01/17 04:55:58;;;;;;;13.43;2.72;;;6.30;99.90;;;;;;5068082;28;20424;-77
2022/01/17 04:58:24;;;;;;;16.88;2.85;;;6.30;99.90;;;;;;5073426;28;20040;-78
2022/01/17 05:00:50;;;;;;;16.08;2.80;;;6.40;99.90;;;;;;5066602;28;20115;-77
2022/01/17 05:03:17;;;;;;;17.75;2.60;;;6.40;99.90;;;;;;5074331;28;20036;-77
2022/01/17 05:05:43;;;;;;;15.70;2.80;;;6.40;99.90;;;;;;5068526;28;20040;-80
2022/01/17 05:08:09;;;;;;;17.13;2.97;;;6.40;99.90;;;;;;5098971;28;20096;-77
2022/01/17 05:10:35;;;;;;;15.65;2.92;;;6.40;99.90;;;;;;5074854;28;20456;-78
2022/01/17 05:13:01;;;;;;;13.82;2.38;;;6.40;99.90;;;;;;5068680;28;20071;-78
2022/01/17 05:15:32;;;;;;;16.17;2.55;;;6.50;99.90;;;;;;5053695;28;20128;-78
2022/01/17 05:18:12;;;;;;;20.85;2.95;;;6.50;99.90;;;;;;5070804;28;20041;-79
2022/01/17 05:20:39;;;;;;;16.52;3.00;;;6.50;99.90;;;;;;5056898;28;20032;-79
2022/01/17 05:23:05;;;;;;;14.10;2.15;;;6.50;99.90;;;;;;5071887;28;20035;-77
2022/01/17 05:25:31;;;;;;;14.95;2.47;;;6.60;99.90;;;;;;5056359;28;20044;-77
2022/01/17 05:27:56;;;;;;;16.88;3.20;;;6.50;99.90;;;;;;5052298;28;20111;-80
2022/01/17 05:30:23;;;;;;;23.17;3.65;;;6.60;99.90;;;;;;5075749;28;20047;-78
2022/01/17 05:32:51;;;;;;;18.00;2.67;;;6.60;99.90;;;;;;5050377;28;20120;-73
2022/01/17 05:35:17;;;;;;;17.70;3.15;;;6.60;99.90;;;;;;5071688;28;20419;-78
2022/01/17 05:37:43;;;;;;;;;;;6.60;99.90;;;;;;5074541;28;20127;-78
2022/01/17 05:40:12;;;;;;;13.77;2.45;;;6.60;99.90;;;;;;5073840;28;19980;-78
2022/01/17 05:42:38;;;;;;;15.35;3.05;;;6.60;99.90;;;;;;5056278;28;20456;-78
2022/01/17 05:45:05;;;;;;;18.23;4.13;;;6.60;99.90;;;;;;5045371;28;20123;-78
2022/01/17 05:47:31;;;;;;;12.82;3.03;;;6.60;99.90;;;;;;5071056;28;20119;-80
2022/01/17 05:49:59;;;;;;;18.67;3.40;;;6.60;99.90;;;;;;5068702;28;20036;-80
2022/01/17 05:52:24;;;;;;;17.45;3.53;;;6.60;99.90;;;;;;5081232;28;20047;-80
2022/01/17 05:54:50;;;;;;;15.50;3.80;;;6.70;99.90;;;;;;5055064;28;20084;-80
2022/01/17 05:57:17;;;;;;;17.70;2.75;;;6.60;99.90;;;;;;5047254;28;20057;-78
2022/01/17 05:59:43;;;;;;;;;;;6.60;99.90;;;;;;5072410;28;20075;-76
2022/01/17 06:02:08;;;;;;;13.63;3.15;;;6.60;99.90;;;;;;5066842;28;19966;-79
2022/01/17 06:04:34;;;;;;;21.30;3.58;;;6.60;99.90;;;;;;5067670;28;20041;-78
2022/01/17 06:07:00;;;;;;;18.15;3.20;;;6.60;99.90;;;;;;5054166;28;20062;-78
2022/01/17 06:09:26;;;;;;;18.83;3.90;;;6.50;99.90;;;;;;5050079;28;20040;-77
2022/01/17 06:11:52;;;;;;;16.85;2.95;;;6.50;99.90;;;;;;5064034;28;20043;-78
2022/01/17 06:14:18;;;;;;;19.52;3.33;;;6.60;99.90;;;;;;5070682;28;20064;-78
2022/01/17 06:16:45;;;;;;;18.70;3.33;;;6.50;99.90;;;;;;5051172;28;20123;-80
2022/01/17 06:19:11;;;;;;;15.75;2.90;;;6.60;99.90;;;;;;5052201;28;20032;-78
2022/01/17 06:21:37;;;;;;;23.35;3.58;;;6.60;99.90;;;;;;5045637;28;20119;-79
2022/01/17 06:24:05;;;;;;;26.83;3.72;;;6.60;99.90;;;;;;5070839;28;20127;-79
2022/01/17 06:26:34;;;;;;;19.73;3.38;;;6.60;99.90;;;;;;5056125;28;20040;-82
2022/01/17 06:29:00;;;;;;;21.42;3.25;;;6.60;99.90;;;;;;5053298;28;20041;-77
2022/01/17 06:31:26;;;;;;;20.25;3.25;;;6.50;99.90;;;;;;5070275;28;20123;-77
2022/01/17 06:33:51;;;;;;;27.45;4.97;;;6.40;99.90;;;;;;5042608;28;20476;-78
2022/01/17 06:36:17;;;;;;;20.10;3.45;;;6.30;99.90;;;;;;5036357;28;20032;-80
2022/01/17 06:38:43;;;;;;;16.13;3.58;;;6.40;99.90;;;;;;5073924;28;20499;-80
2022/01/17 06:41:08;;;;;;;22.67;5.00;;;6.40;99.90;;;;;;5056758;28;20033;-79
2022/01/17 06:43:34;;;;;;;20.30;3.53;;;6.40;99.90;;;;;;5054291;28;20545;-80
2022/01/17 06:46:00;;;;;;;21.85;3.97;;;6.40;99.90;;;;;;5049682;28;20041;-78
2022/01/17 06:48:26;;;;;;;18.80;3.90;;;6.40;99.90;;;;;;5070864;28;20108;-79
2022/01/17 06:50:51;;;;;;;17.40;3.10;;;6.40;99.90;;;;;;5066814;28;20087;-79
2022/01/17 06:53:17;;;;;;;19.52;3.38;;;6.40;99.90;;;;;;5054475;28;20050;-78
2022/01/17 06:55:43;;;;;;;27.02;4.13;;;6.40;99.90;;;;;;5038472;28;20048;-79
2022/01/17 06:58:09;;;;;;;28.48;3.83;;;6.40;99.90;;;;;;5055554;28;20415;-78
2022/01/17 07:00:34;;;;;;;28.83;4.28;;;6.50;99.90;;;;;;5054253;28;20032;-81
2022/01/17 07:03:01;;;;;;;22.60;3.90;;;6.50;99.90;;;;;;5069896;28;20192;-78
2022/01/17 07:05:26;;;;;;;18.75;3.63;;;6.50;99.90;;;;;;5070288;28;20431;-78
2022/01/17 07:07:53;;;;;;;29.95;4.18;;;6.50;99.90;;;;;;5055835;28;20078;-79
2022/01/17 07:10:18;;;;;;;22.15;3.50;;;6.50;99.90;;;;;;5047623;28;20094;-79
2022/01/17 07:12:44;;;;;;;21.60;4.13;;;6.50;99.90;;;;;;5054631;28;20040;-79
2022/01/17 07:15:10;;;;;;;23.98;4.05;;;6.50;99.90;;;;;;5053361;28;20043;-79
2022/01/17 07:17:35;;;;;;;19.63;3.28;;;6.60;99.90;;;;;;5065237;28;20045;-79
2022/01/17 07:20:03;;;;;;;23.35;3.67;;;6.60;99.90;;;;;;5049116;28;20037;-79
2022/01/17 07:22:30;;;;;;;25.08;3.83;;;6.60;99.90;;;;;;5078552;28;20040;-79
2022/01/17 07:24:57;;;;;;;28.17;4.18;;;6.60;99.90;;;;;;5047838;28;20094;-78
2022/01/17 07:27:24;;;;;;;24.23;4.50;;;6.60;99.90;;;;;;5051995;28;20040;-79
2022/01/17 07:29:50;;;;;;;20.75;4.18;;;6.70;99.90;;;;;;5061780;28;20044;-78
2022/01/17 07:32:16;;;;;;;21.73;3.92;;;6.80;99.90;;;;;;5070653;28;20537;-79
2022/01/17 07:34:41;;;;;;;23.23;4.07;;;6.70;99.90;;;;;;5074082;28;20037;-79
2022/01/17 07:37:07;;;;;;;24.02;3.88;;;6.70;99.90;;;;;;5069053;28;20028;-79
2022/01/17 07:39:36;;;;;;;24.25;4.32;;;6.80;99.90;;;;;;5071586;28;20051;-80
2022/01/17 07:42:01;;;;;;;29.02;4.45;;;6.80;99.90;;;;;;5071090;28;20037;-80
2022/01/17 07:44:29;;;;;;;21.98;3.65;;;6.90;99.90;;;;;;5070851;28;20051;-78
2022/01/17 07:46:58;;;;;;;20.25;3.58;;;6.90;99.90;;;;;;5089624;28;20067;-80
2022/01/17 07:49:25;;;;;;;22.50;3.90;;;6.90;99.90;;;;;;5049396;28;20053;-78
2022/01/17 07:51:59;;;;;;;26.70;5.10;;;6.90;99.90;;;;;;5051116;28;20089;-80
2022/01/17 07:54:26;;;;;;;22.33;4.22;;;7.00;99.90;;;;;;5057553;28;20489;-77
2022/01/17 07:56:52;;;;;;;25.80;4.63;;;7.00;99.90;;;;;;5059877;28;20059;-73
2022/01/17 07:59:18;;;;;;;21.42;3.75;;;7.00;99.90;;;;;;5066367;28;20491;-73
2022/01/17 08:01:44;;;;;;;26.88;4.15;;;7.10;99.90;;;;;;5067395;28;20075;-73
2022/01/17 08:04:10;;;;;;;30.90;5.07;;;7.20;99.90;;;;;;5066493;28;20048;-73
2022/01/17 08:06:39;;;;;;;28.23;4.25;;;7.20;99.90;;;;;;5026495;28;20040;-73
2022/01/17 08:09:09;;;;;;;22.17;3.88;;;7.20;99.90;;;;;;5059464;28;20052;-73
2022/01/17 08:11:35;;;;;;;27.17;5.20;;;7.30;99.90;;;;;;5069047;28;20048;-71
2022/01/17 08:14:01;;;;;;;29.63;4.47;;;7.30;99.90;;;;;;5065396;28;20047;-72
2022/01/17 08:16:27;;;;;;;32.88;4.63;;;7.40;99.90;;;;;;5069013;28;20075;-73
2022/01/17 08:18:52;;;;;;;24.88;4.57;;;7.40;99.90;;;;;;5045442;28;20044;-72
2022/01/17 08:21:19;;;;;;;31.17;4.68;;;7.40;99.90;;;;;;5052162;28;20123;-73
2022/01/17 08:23:45;;;;;;;26.30;4.55;;;7.50;99.90;;;;;;5046580;28;20038;-73
2022/01/17 08:26:11;;;;;;;28.60;4.93;;;7.50;99.90;;;;;;5067609;28;20377;-73
2022/01/17 08:28:37;;;;;;;28.40;4.40;;;7.50;99.90;;;;;;5068568;28;20048;-73
2022/01/17 08:31:03;;;;;;;;;;;7.60;99.90;;;;;;5062510;28;20064;-74
2022/01/17 08:33:29;;;;;;;35.53;5.03;;;7.50;99.90;;;;;;5069724;28;19920;-73
2022/01/17 08:35:54;;;;;;;24.80;4.28;;;7.60;99.90;;;;;;5069942;28;20049;-73
2022/01/17 08:38:20;;;;;;;26.33;3.88;;;7.60;99.90;;;;;;5063921;28;20154;-73
2022/01/17 08:40:46;;;;;;;34.33;5.72;;;7.70;99.90;;;;;;5038760;28;20048;-73
2022/01/17 08:43:12;;;;;;;24.60;4.15;;;7.70;99.90;;;;;;5064493;28;20099;-73
2022/01/17 08:45:38;;;;;;;26.40;4.78;;;7.70;99.90;;;;;;5031272;28;20459;-73
2022/01/17 08:48:05;;;;;;;21.17;3.90;;;7.80;99.90;;;;;;5073413;28;20043;-73
2022/01/17 08:50:31;;;;;;;26.90;4.10;;;7.80;99.90;;;;;;5045951;28;20067;-73
2022/01/17 08:52:57;;;;;;;28.00;5.40;;;7.80;99.90;;;;;;5061110;28;20053;-73
2022/01/17 08:55:23;;;;;;;28.80;4.40;;;7.90;99.90;;;;;;5051111;28;20480;-73
2022/01/17 08:57:50;;;;;;;26.88;4.45;;;7.90;99.90;;;;;;5080588;28;20403;-73
2022/01/17 09:00:19;;;;;;;29.25;5.03;;;7.90;99.90;;;;;;5070341;28;20113;-77
2022/01/17 09:02:45;;;;;;;31.85;5.25;;;8.10;99.90;;;;;;5053768;28;20040;-73
2022/01/17 09:05:11;;;;;;;40.50;5.45;;;8.10;99.90;;;;;;5073501;28;20782;-73
2022/01/17 09:07:37;;;;;;;29.85;5.60;;;8.20;99.90;;;;;;5049985;28;20053;-73
2022/01/17 09:10:04;;;;;;;29.05;4.50;;;8.20;99.90;;;;;;5053685;28;20105;-73
2022/01/17 09:12:30;;;;;;;29.63;5.03;;;8.20;99.90;;;;;;5079225;28;20056;-72
2022/01/17 09:14:55;;;;;;;23.63;4.53;;;8.30;99.90;;;;;;5053382;28;20055;-73
2022/01/17 09:17:21;;;;;;;28.20;4.63;;;8.30;99.90;;;;;;5050553;28;20120;-72
2022/01/17 09:19:50;;;;;;;32.80;5.40;;;8.30;99.90;;;;;;5049377;28;20040;-73
2022/01/17 09:22:16;;;;;;;34.92;6.95;;;8.40;99.90;;;;;;5068811;28;20383;-73
2022/01/17 09:24:42;;;;;;;;;;;8.40;99.90;;;;;;5071922;28;20055;-73
2022/01/17 09:27:08;;;;;;;33.33;4.60;;;8.40;99.90;;;;;;5049578;28;19916;-73
2022/01/17 09:29:34;;;;;;;28.70;5.18;;;8.50;99.90;;;;;;5065839;28;20104;-73
2022/01/17 09:32:00;;;;;;;32.05;5.63;;;8.50;99.90;;;;;;5067690;28;20048;-73
2022/01/17 09:34:26;;;;;;;28.83;5.38;;;8.50;99.90;;;;;;5028586;28;20500;-72
2022/01/17 09:36:53;;;;;;;31.80;5.65;;;8.50;99.90;;;;;;5077021;28;20033;-73
2022/01/17 09:39:19;;;;;;;30.70;4.50;;;8.50;99.90;;;;;;5063958;28;20089;-73
2022/01/17 09:41:45;;;;;;;35.00;5.50;;;8.60;99.90;;;;;;5046666;28;20151;-75
2022/01/17 09:44:11;;;;;;;31.33;5.32;;;8.60;99.90;;;;;;5067046;28;20535;-74
2022/01/17 09:46:42;;;;;;;34.08;5.15;;;8.60;99.90;;;;;;5067585;28;20080;-73
2022/01/17 09:49:15;;;;;;;43.85;7.07;;;8.70;99.90;;;;;;5040646;28;20541;-74
2022/01/17 09:54:28;;;;;;;36.80;5.45;;;8.70;99.90;;;;;;5056363;28;20041;-74
2022/01/17 09:56:56;;;;;;;33.92;5.88;;;8.70;99.90;;;;;;5091619;28;20128;-74
2022/01/17 09:59:21;;;;;;;36.88;5.15;;;8.80;99.90;;;;;;5058904;28;20032;-74
2022/01/17 10:01:48;;;;;;;39.42;5.38;;;8.80;99.90;;;;;;5058717;28;21132;-74
2022/01/17 10:04:16;;;;;;;31.05;5.80;;;8.80;99.90;;;;;;5056039;28;20059;-73
2022/01/17 10:06:43;;;;;;;43.50;6.53;;;8.80;99.90;;;;;;5043402;28;20087;-74
2022/01/17 10:09:21;;;;;;;37.65;6.00;;;8.90;99.90;;;;;;5044334;28;20402;-74
2022/01/17 10:12:06;;;;;;;33.13;6.13;;;8.90;99.90;;;;;;5042862;28;20374;-74
2022/01/17 10:14:59;;;;;;;39.65;6.75;;;8.90;99.90;;;;;;5042911;28;20549;-75
2022/01/17 10:17:43;;;;;;;37.25;6.07;;;8.90;99.90;;;;;;5057270;28;20119;-74
2022/01/17 10:20:11;;;;;;;37.78;5.97;;;8.90;99.90;;;;;;5063767;28;20131;-73
2022/01/17 10:22:48;;;;;;;34.13;5.82;;;8.80;99.90;;;;;;5039086;28;20044;-74
2022/01/17 10:36:49;;;;;;;34.63;6.38;;;8.90;99.90;;;;;;5098713;28;20036;-81
2022/01/17 10:39:15;;;;;;;37.97;6.68;;;8.90;99.90;;;;;;5069464;28;20048;-80
2022/01/17 10:41:41;;;;;;;38.20;6.35;;;8.80;99.90;;;;;;5052791;28;20037;-81
2022/01/17 10:44:07;;;;;;;36.17;6.00;;;8.80;99.90;;;;;;5055302;28;20048;-80
2022/01/17 10:46:33;;;;;;;41.22;6.30;;;8.80;99.90;;;;;;5064931;28;20092;-81
2022/01/17 10:49:00;;;;;;;36.35;6.35;;;8.90;99.90;;;;;;5067932;28;20049;-81
2022/01/17 10:51:35;;;;;;;35.33;6.05;;;8.80;99.90;;;;;;5067334;28;20123;-82
2022/01/17 10:54:15;;;;;;;35.42;6.03;;;8.90;99.90;;;;;;5088374;28;20102;-82
2022/01/17 10:56:53;;;;;;;33.10;5.55;;;8.90;99.90;;;;;;5061617;28;20041;-82
2022/01/17 10:59:27;;;;;;;39.95;6.57;;;8.90;99.90;;;;;;5060963;28;20037;-82
2022/01/17 11:01:56;;;;;;;36.75;6.63;;;9.00;99.90;;;;;;5066999;28;20048;-82
2022/01/17 11:04:41;;;;;;;45.53;6.88;;;9.10;99.90;;;;;;5073022;28;20483;-81
2022/01/17 11:07:09;;;;;;;37.42;6.70;;;9.30;99.90;;;;;;5071205;28;20047;-82
2022/01/17 11:09:40;;;;;;;37.17;7.03;;;9.40;99.90;;;;;;5069526;28;20089;-80
2022/01/17 11:12:11;;;;;;;35.58;6.22;;;9.30;99.90;;;;;;5044342;28;20047;-81
2022/01/17 11:14:37;;;;;;;45.92;6.40;;;9.30;99.90;;;;;;5073477;28;20040;-81
2022/01/17 11:17:26;;;;;;;41.92;6.70;;;9.30;99.90;;;;;;5030992;28;20039;-82
2022/01/17 11:20:06;;;;;;;39.35;7.20;;;9.20;99.90;;;;;;5069365;28;20435;-81
2022/01/17 11:22:34;;;;;;;47.58;8.13;;;9.30;99.90;;;;;;5052273;28;20048;-82
2022/01/17 11:25:00;;;;;;;38.53;7.30;;;9.30;99.90;;;;;;5055765;28;20045;-81
2022/01/17 11:27:28;;;;;;;35.97;7.15;;;9.40;99.90;;;;;;5049915;28;20060;-81
2022/01/17 11:29:55;;;;;;;39.58;7.45;;;9.50;99.90;;;;;;5053918;28;20060;-82
2022/01/17 11:32:22;;;;;;;40.40;6.85;;;9.40;99.90;;;;;;5067859;28;20459;-81
2022/01/17 11:34:49;;;;;;;38.70;6.75;;;9.40;99.90;;;;;;5073538;28;20123;-81
2022/01/17 11:37:15;;;;;;;38.40;7.10;;;9.50;99.90;;;;;;5075373;28;20103;-78
2022/01/17 11:39:48;;;;;;;;;;;9.50;99.90;;;;;;5051099;28;20041;-80
2022/01/17 11:42:32;;;;;;;36.85;7.03;;;9.40;99.90;;;;;;5060227;28;19978;-81
2022/01/17 11:44:58;;;;;;;45.33;7.53;;;9.40;99.90;;;;;;5075620;28;20040;-80
2022/01/17 11:47:48;;;;;;;42.72;8.15;;;9.40;99.90;;;;;;5053016;28;20381;-80
2022/01/17 11:50:29;;;;;;;49.58;8.25;;;9.20;99.90;;;;;;5056174;28;20482;-81
2022/01/17 11:52:57;;;;;;;45.15;7.95;;;9.30;99.90;;;;;;5068611;28;20133;-81
2022/01/17 11:55:43;;;;;;;43.75;8.40;;;9.20;99.90;;;;;;5069362;28;20044;-80
2022/01/17 11:58:26;;;;;;;43.90;8.00;;;9.30;99.90;;;;;;5066212;28;20123;-79
2022/01/17 12:00:58;;;;;;;39.17;7.70;;;9.20;99.90;;;;;;5051735;28;20037;-78
2022/01/17 12:03:31;;;;;;;46.10;7.82;;;9.30;99.90;;;;;;5094319;28;20045;-81
2022/01/17 12:06:05;;;;;;;45.60;8.13;;;9.40;99.90;;;;;;5075297;28;20482;-81
2022/01/17 12:08:31;;;;;;;50.90;8.73;;;9.50;99.90;;;;;;5056867;28;20048;-81
2022/01/17 12:11:03;;;;;;;42.15;7.03;;;9.50;99.90;;;;;;5057580;28;20389;-73
2022/01/17 12:13:41;;;;;;;45.83;7.60;;;9.50;99.90;;;;;;5069383;28;20044;-73
2022/01/17 12:16:20;;;;;;;41.97;7.53;;;9.50;99.90;;;;;;5092045;28;20181;-73
2022/01/17 12:19:03;;;;;;;41.17;7.70;;;9.50;99.90;;;;;;5072874;28;20089;-73
2022/01/17 12:21:44;;;;;;;46.30;7.63;;;9.50;99.90;;;;;;5067213;28;20077;-74
2022/01/17 12:24:17;;;;;;;38.40;7.75;;;9.50;99.90;;;;;;5065261;28;20103;-74
2022/01/17 12:26:56;;;;;;;35.95;7.22;;;9.50;99.90;;;;;;5069487;28;20132;-74
2022/01/17 12:29:38;;;;;;;41.95;7.10;;;9.40;99.90;;;;;;5049260;28;20075;-74
2022/01/17 12:32:25;;;;;;;38.95;7.38;;;9.30;99.90;;;;;;5082110;28;20361;-74
2022/01/17 12:35:04;;;;;;;43.15;7.35;;;9.20;99.90;;;;;;5075946;28;20059;-73
2022/01/17 12:37:36;;;;;;;38.42;7.00;;;9.30;99.90;;;;;;5092205;28;20472;-74
2022/01/17 12:40:43;;;;;;;39.13;7.43;;;9.20;99.90;;;;;;5093727;28;20036;-74
2022/01/17 12:43:16;;;;;;;36.22;6.50;;;9.20;99.90;;;;;;5069287;28;20064;-74
2022/01/17 12:45:49;;;;;;;37.72;6.88;;;9.20;99.90;;;;;;5051487;28;20139;-74
2022/01/17 12:48:18;;;;;;;37.30;6.78;;;9.20;99.90;;;;;;5088823;28;20045;-73
2022/01/17 12:50:47;;;;;;;41.92;8.15;;;9.30;99.90;;;;;;5066492;28;20036;-74
2022/01/17 12:53:18;;;;;;;36.38;6.05;;;9.20;99.90;;;;;;5053399;28;20115;-74
2022/01/17 12:55:46;;;;;;;34.88;6.95;;;9.20;99.90;;;;;;5045940;28;20155;-73
2022/01/17 12:58:13;;;;;;;40.10;7.80;;;9.20;99.90;;;;;;5068260;28;20087;-74
2022/01/17 13:00:43;;;;;;;36.38;6.85;;;9.20;99.90;;;;;;5068848;28;20044;-81
2022/01/17 13:03:09;;;;;;;44.08;7.90;;;9.30;99.90;;;;;;5075148;28;20059;-81
2022/01/17 13:05:38;;;;;;;35.72;6.90;;;9.30;99.90;;;;;;5074181;28;20037;-82
2022/01/17 13:08:04;;;;;;;38.28;6.78;;;9.20;99.90;;;;;;5057965;28;20040;-81
2022/01/17 13:10:30;;;;;;;38.97;7.22;;;9.20;99.90;;;;;;5056067;28;20049;-81
2022/01/17 13:13:00;;;;;;;37.55;6.90;;;9.10;99.90;;;;;;5065598;28;20143;-81
2022/01/17 13:15:26;;;;;;;40.28;7.00;;;9.10;99.90;;;;;;5060494;28;20126;-81
2022/01/17 13:17:52;;;;;;;44.35;7.30;;;9.10;99.90;;;;;;5069921;28;20040;-74
2022/01/17 13:20:20;;;;;;;34.63;6.47;;;9.10;99.90;;;;;;5068604;28;20037;-74
2022/01/17 13:23:29;;;;;;;39.92;6.93;;;9.10;99.90;;;;;;5053088;28;20108;-73
2022/01/17 13:25:39;;;;;;;43.35;8.38;;;9.10;99.90;;;;;;5065710;28;20326;-73
2022/01/17 13:28:05;;;;;;;46.03;7.60;;;9.10;99.90;;;;;;5048395;28;20110;-73
2022/01/17 13:30:32;;;;;;;41.90;8.00;;;9.00;99.90;;;;;;5068399;28;20110;-73